Time;durP1;ratioP1;P1;durP2;ratioP2;P2;SDS_P1;SDS_P2;PMS_P1;PMS_P2;Temp;Humidity;BMP_temperature;BMP_pressure;BME280_temperature;BME280_humidity;BME280_pressure;Samples;Min_cycle;Max_cycle;Signal;HPM_P1;HPM_P2
2022/05/09 00:00:13;;;;;;;;;12.00;12.00;;;;;19.47;68.59;102165.56;5037166;28;45633;-81
2022/05/09 00:02:40;;;;;;;;;15.00;12.75;;;;;19.43;68.44;102166.31;5036719;28;46168;-81
2022/05/09 00:05:07;;;;;;;;;15.25;13.25;;;;;19.39;68.09;102167.03;5036382;28;45810;-81
2022/05/09 00:07:32;;;;;;;;;13.25;12.75;;;;;19.35;68.36;102167.81;5036529;28;45306;-81
2022/05/09 00:09:58;;;;;;;;;16.25;13.50;;;;;19.29;68.52;102163.28;5036286;28;45457;-82
2022/05/09 00:12:24;;;;;;;;;11.25;9.50;;;;;19.25;68.92;102158.75;5036347;28;45462;-81
2022/05/09 00:14:49;;;;;;;;;12.25;11.75;;;;;19.19;68.48;102158.59;5037366;28;45234;-81
2022/05/09 00:17:15;;;;;;;;;12.50;11.25;;;;;19.06;68.98;102159.91;5041610;28;45384;-81
2022/05/09 00:19:40;;;;;;;;;13.00;9.25;;;;;18.99;69.12;102160.56;5040564;28;45626;-81
2022/05/09 00:22:06;;;;;;;;;11.50;9.00;;;;;18.95;68.73;102162.22;5036158;28;45794;-81
2022/05/09 00:24:32;;;;;;;;;13.25;10.25;;;;;18.90;68.97;102160.25;5036216;28;45960;-81
2022/05/09 00:26:58;;;;;;;;;11.75;9.50;;;;;18.90;68.94;102170.75;5036049;28;45403;-81
2022/05/09 00:29:24;;;;;;;;;10.25;9.75;;;;;18.86;68.46;102167.13;5036455;28;45387;-81
2022/05/09 00:31:53;;;;;;;;;11.00;10.50;;;;;18.79;68.34;102154.66;5035793;28;46327;-81
2022/05/09 00:34:21;;;;;;;;;10.25;8.00;;;;;18.70;68.76;102157.88;5035906;28;45241;-81
2022/05/09 00:36:48;;;;;;;;;8.00;7.75;;;;;18.65;68.63;102159.44;5035268;28;45458;-81
2022/05/09 00:39:15;;;;;;;;;8.00;7.00;;;;;18.61;68.16;102158.44;5036234;28;45339;-81
2022/05/09 00:41:43;;;;;;;;;8.00;7.00;;;;;18.58;68.37;102150.47;5037174;28;45468;-81
2022/05/09 00:44:16;;;;;;;;;6.25;6.25;;;;;18.56;67.93;102155.69;5040739;28;45174;-80
2022/05/09 00:46:44;;;;;;;;;7.00;7.00;;;;;18.55;67.78;102159.13;5038830;28;45323;-81
2022/05/09 00:49:17;;;;;;;;;10.00;7.25;;;;;18.51;67.68;102153.75;5019183;28;45577;-81
2022/05/09 00:51:50;;;;;;;;;5.75;5.25;;;;;18.45;67.55;102157.03;5035882;28;45372;-81
2022/05/09 00:54:16;;;;;;;;;7.25;4.50;;;;;18.37;67.50;102148.91;5035714;28;45978;-81
2022/05/09 00:56:52;;;;;;;;;6.25;5.50;;;;;18.40;67.72;102145.53;5035822;28;45344;-81
2022/05/09 00:59:19;;;;;;;;;11.00;8.00;;;;;18.43;67.50;102153.47;5036238;28;45509;-81
2022/05/09 01:01:47;;;;;;;;;10.25;6.25;;;;;18.48;66.99;102154.53;5017358;28;47729;-81
2022/05/09 01:04:24;;;;;;;;;5.50;5.50;;;;;18.50;66.72;102158.13;5035730;28;45854;-81
2022/05/09 01:06:50;;;;;;;;;8.00;6.00;;;;;18.49;66.93;102160.66;5035875;28;45317;-81
2022/05/09 01:09:15;;;;;;;;;8.00;6.00;;;;;18.46;66.62;102150.97;5039510;28;45324;-81
2022/05/09 01:11:44;;;;;;;;;6.50;4.25;;;;;18.46;66.25;102153.59;5040160;28;46666;-81
2022/05/09 01:14:16;;;;;;;;;9.50;7.00;;;;;18.45;66.18;102154.44;5036348;28;45435;-81
2022/05/09 01:16:43;;;;;;;;;5.00;5.00;;;;;18.43;65.86;102153.47;5035384;28;45347;-81
2022/05/09 01:19:28;;;;;;;;;6.75;5.50;;;;;18.43;66.35;102149.97;5018418;28;45513;-81
2022/05/09 01:21:54;;;;;;;;;5.50;5.00;;;;;18.35;66.55;102152.34;5035274;28;45269;-81
2022/05/09 01:24:23;;;;;;;;;11.25;4.75;;;;;18.28;66.56;102147.72;5035302;28;45703;-81
2022/05/09 01:26:50;;;;;;;;;8.50;8.00;;;;;18.19;66.63;102156.16;5035321;28;45461;-81
2022/05/09 01:29:44;;;;;;;;;7.25;5.25;;;;;18.12;66.90;102157.66;5035526;28;45418;-81
2022/05/09 01:32:14;;;;;;;;;5.00;4.75;;;;;18.05;67.07;102150.44;5035403;28;45448;-81
2022/05/09 01:34:44;;;;;;;;;8.50;4.25;;;;;18.04;67.03;102148.66;5038684;28;45877;-81
2022/05/09 01:37:12;;;;;;;;;5.75;5.75;;;;;18.03;66.99;102152.97;5040698;28;45482;-81
2022/05/09 01:39:39;;;;;;;;;5.25;5.25;;;;;17.99;67.35;102148.47;5036712;28;45407;-81
2022/05/09 01:42:09;;;;;;;;;6.75;5.00;;;;;17.99;67.13;102151.09;5035395;28;45355;-81
2022/05/09 01:44:36;;;;;;;;;7.25;4.25;;;;;18.00;67.33;102154.59;5017226;28;45723;-81
2022/05/09 01:49:47;;;;;;;;;5.00;5.00;;;;;17.99;67.64;102148.47;5038879;28;45419;-81
2022/05/09 01:52:14;;;;;;;;;6.00;5.00;;;;;18.02;67.40;102148.59;5038648;28;46419;-81
2022/05/09 01:54:43;;;;;;;;;5.75;5.75;;;;;18.05;67.23;102151.31;5038581;28;45189;-81
2022/05/09 01:57:10;;;;;;;;;10.75;6.00;;;;;18.04;66.69;102146.03;5038850;28;45330;-81
2022/05/09 01:59:36;;;;;;;;;5.00;4.00;;;;;18.00;66.68;102136.25;5040576;28;45490;-81
2022/05/09 02:02:09;;;;;;;;;5.75;5.75;;;;;18.04;66.84;102146.91;5042744;28;45446;-80
2022/05/09 02:04:38;;;;;;;;;8.75;6.00;;;;;18.04;67.11;102138.16;5042716;28;45723;-81
2022/05/09 02:07:05;;;;;;;;;5.00;5.00;;;;;18.03;67.20;102139.00;5038683;28;45248;-81
2022/05/09 02:09:31;;;;;;;;;9.50;6.25;;;;;18.02;66.90;102137.22;5038471;28;45291;-81
2022/05/09 02:11:56;;;;;;;;;6.50;5.50;;;;;17.99;66.82;102142.34;5038031;28;45225;-81
2022/05/09 02:14:22;;;;;;;;;8.50;5.75;;;;;17.99;67.03;102147.56;5038042;28;45488;-81
2022/05/09 02:16:47;;;;;;;;;5.00;4.50;;;;;17.96;66.88;102148.34;5038174;28;45332;-81
2022/05/09 02:19:13;;;;;;;;;6.25;6.00;;;;;17.95;67.02;102138.69;5038156;28;45662;-81
2022/05/09 02:21:39;;;;;;;;;6.00;5.25;;;;;17.94;67.19;102139.53;5038064;28;46103;-81
2022/05/09 02:24:05;;;;;;;;;9.00;5.75;;;;;17.92;67.62;102136.84;5037801;28;45442;-81
2022/05/09 02:26:31;;;;;;;;;7.25;7.00;;;;;17.88;68.35;102134.94;5041235;28;45339;-81
2022/05/09 02:28:57;;;;;;;;;11.75;8.75;;;;;17.89;69.82;102141.97;5043230;28;45288;-81
2022/05/09 02:31:23;;;;;;;;;6.50;6.50;;;;;17.88;70.96;102136.69;5038851;28;46175;-81
2022/05/09 02:33:49;;;;;;;;;8.75;7.50;;;;;17.83;71.76;102144.38;5037772;28;45383;-81
2022/05/09 02:36:15;;;;;;;;;9.75;9.25;;;;;17.76;73.29;102145.00;5037809;28;45284;-81
2022/05/09 02:38:41;;;;;;;;;11.75;9.25;;;;;17.57;74.13;102139.06;5038605;28;45462;-81
2022/05/09 02:41:06;;;;;;;;;10.50;10.50;;;;;17.45;75.39;102136.00;5037749;28;45880;-81
2022/05/09 02:43:34;;;;;;;;;11.25;9.50;;;;;17.43;75.57;102146.41;5037837;28;45258;-81
2022/05/09 02:46:03;;;;;;;;;11.75;10.25;;;;;17.41;75.93;102136.72;5019656;28;45372;-81
2022/05/09 02:48:37;;;;;;;;;13.50;11.25;;;;;17.38;76.41;102126.13;5038131;28;45590;-81
2022/05/09 02:51:05;;;;;;;;;13.50;12.50;;;;;17.35;76.77;102131.25;5018988;28;47076;-81
2022/05/09 02:53:31;;;;;;;;;10.75;8.75;;;;;17.29;77.02;102131.91;5037806;28;45812;-81
2022/05/09 02:55:57;;;;;;;;;12.50;10.00;;;;;17.23;76.92;102134.28;5044333;28;45301;-80
2022/05/09 02:58:22;;;;;;;;;14.25;10.25;;;;;17.21;77.54;102135.94;5020052;28;45374;-81
2022/05/09 03:00:48;;;;;;;;;11.50;9.25;;;;;17.21;77.81;102134.25;5019690;28;45421;-81
2022/05/09 03:05:58;;;;;;;;;8.50;8.50;;;;;17.17;77.74;102122.72;5036955;28;45478;-81
2022/05/09 03:08:24;;;;;;;;;14.25;12.75;;;;;17.17;77.71;102124.47;5037427;28;45380;-81
2022/05/09 03:10:50;;;;;;;;;15.00;12.50;;;;;17.15;77.68;102121.81;5037073;28;46285;-81
2022/05/09 03:13:16;;;;;;;;;12.75;10.25;;;;;17.12;78.23;102116.44;5037492;28;45763;-81
2022/05/09 03:15:45;;;;;;;;;12.25;10.50;;;;;17.11;78.03;102135.59;5036937;28;45285;-81
2022/05/09 03:18:14;;;;;;;;;12.25;12.25;;;;;17.10;78.15;102125.09;5037866;28;45262;-81
2022/05/09 03:20:40;;;;;;;;;12.75;11.00;;;;;17.05;78.17;102122.28;5039442;28;46249;-81
2022/05/09 03:23:07;;;;;;;;;13.00;8.75;;;;;17.04;78.59;102115.25;5025906;28;45758;-81
2022/05/09 03:25:35;;;;;;;;;10.75;10.75;;;;;17.01;78.82;102125.59;5038014;28;45237;-81
2022/05/09 03:28:03;;;;;;;;;11.00;10.25;;;;;16.98;80.26;102121.16;5037212;28;45194;-81
2022/05/09 03:30:29;;;;;;;;;13.25;10.50;;;;;16.92;79.07;102131.31;5019274;28;46350;-81
2022/05/09 03:32:55;;;;;;;;;13.50;8.00;;;;;16.82;79.06;102116.09;5037035;28;45356;-81
2022/05/09 03:35:21;;;;;;;;;12.50;11.25;;;;;16.79;79.91;102127.31;5037216;28;45363;-81
2022/05/09 03:37:46;;;;;;;;;14.25;12.00;;;;;16.77;80.20;102117.66;5037042;28;45411;-81
2022/05/09 03:40:12;;;;;;;;;9.75;8.25;;;;;16.72;80.33;102114.84;5036525;28;47224;-80
2022/05/09 03:42:39;;;;;;;;;11.25;10.25;;;;;16.74;80.86;102122.75;5019621;28;45816;-81
2022/05/09 03:45:06;;;;;;;;;10.00;8.00;;;;;16.75;80.14;102121.91;5036846;28;45269;-81
2022/05/09 03:47:32;;;;;;;;;10.75;10.75;;;;;16.70;80.94;102122.59;5022657;28;46028;-81
2022/05/09 03:49:57;;;;;;;;;11.25;10.25;;;;;16.70;80.59;102134.81;5042331;28;45439;-81
2022/05/09 03:52:24;;;;;;;;;10.75;10.75;;;;;16.66;80.60;102125.03;5036769;28;45376;-81
2022/05/09 03:54:50;;;;;;;;;13.75;8.25;;;;;16.64;81.16;102119.75;5036727;28;45293;-81
2022/05/09 03:57:16;;;;;;;;;15.25;11.00;;;;;16.63;80.87;102117.09;5036942;28;45582;-81
2022/05/09 03:59:42;;;;;;;;;12.00;8.25;;;;;16.65;81.09;102126.78;5036406;28;45332;-81
2022/05/09 04:02:08;;;;;;;;;10.75;10.50;;;;;16.64;80.96;102117.16;5036903;28;45235;-81
2022/05/09 04:04:34;;;;;;;;;11.00;8.50;;;;;16.63;81.45;102122.31;5036742;28;45240;-81
2022/05/09 04:06:59;;;;;;;;;11.25;11.25;;;;;16.65;81.18;102111.09;5036555;28;45500;-81
2022/05/09 04:09:25;;;;;;;;;12.50;11.75;;;;;16.63;80.87;102114.47;5036440;28;45246;-81
2022/05/09 04:11:50;;;;;;;;;11.75;10.50;;;;;16.56;80.99;102118.56;5036220;28;45230;-81
2022/05/09 04:16:49;;;;;;;;;10.25;8.25;;;;;16.53;81.09;102118.41;5022311;28;45229;-81
2022/05/09 04:17:02;;;;;;;;;13.00;11.75;;;;;16.53;81.42;102119.31;5040984;28;45557;-81
2022/05/09 04:19:27;;;;;;;;;10.00;8.75;;;;;16.57;81.76;102117.72;5036476;28;45923;-81
2022/05/09 04:21:53;;;;;;;;;10.00;8.25;;;;;16.61;81.48;102114.41;5035635;28;45430;-82
2022/05/09 04:24:20;;;;;;;;;9.00;9.00;;;;;16.60;81.41;102119.56;5036607;28;45328;-81
2022/05/09 04:26:45;;;;;;;;;14.50;10.00;;;;;16.53;81.87;102121.03;5036234;28;45426;-81
2022/05/09 04:29:11;;;;;;;;;11.00;10.00;;;;;16.49;82.24;102116.50;5035264;28;46728;-81
2022/05/09 04:31:37;;;;;;;;;10.50;9.00;;;;;16.42;82.47;102109.25;5036577;28;45316;-82
2022/05/09 04:34:03;;;;;;;;;12.50;12.25;;;;;16.33;82.72;102115.88;5036452;28;45339;-81
2022/05/09 04:36:29;;;;;;;;;13.50;10.50;;;;;16.27;82.85;102115.59;5036233;28;45348;-81
2022/05/09 04:38:55;;;;;;;;;14.50;11.75;;;;;16.23;82.32;102126.78;5035771;28;45961;-81
2022/05/09 04:41:22;;;;;;;;;13.00;11.50;;;;;16.23;83.31;102121.53;5040733;28;45221;-81
2022/05/09 04:43:48;;;;;;;;;12.25;10.00;;;;;16.25;83.66;102122.50;5043491;28;45399;-81
2022/05/09 04:46:14;;;;;;;;;12.25;11.25;;;;;16.25;83.63;102125.13;5039497;28;45521;-82
2022/05/09 04:48:42;;;;;;;;;13.25;10.00;;;;;16.23;83.77;102124.16;5035830;28;46008;-82
2022/05/09 04:51:08;;;;;;;;;14.75;11.50;;;;;16.24;84.40;102136.41;5036312;28;45786;-81
2022/05/09 04:53:34;;;;;;;;;11.00;11.00;;;;;16.23;84.58;102126.78;5036017;28;45305;-81
2022/05/09 04:56:01;;;;;;;;;11.75;11.00;;;;;16.19;84.13;102130.06;5035450;28;45278;-81
2022/05/09 04:58:27;;;;;;;;;17.25;11.50;;;;;16.13;83.64;102127.19;5035707;28;46197;-81
2022/05/09 05:00:53;;;;;;;;;17.25;11.75;;;;;16.12;84.26;102123.69;5017475;28;45434;-81
2022/05/09 05:03:19;;;;;;;;;13.00;9.25;;;;;16.11;84.26;102123.63;5035394;28;45342;-81
2022/05/09 05:05:45;;;;;;;;;16.50;11.50;;;;;16.12;84.04;102125.41;5019458;28;45560;-81
2022/05/09 05:08:15;;;;;;;;;13.00;12.25;;;;;16.14;84.00;102119.41;5039101;28;45364;-81
2022/05/09 05:10:41;;;;;;;;;15.75;12.75;;;;;16.14;84.36;102116.81;5036627;28;45846;-81
2022/05/09 05:13:07;;;;;;;;;10.50;10.50;;;;;16.16;83.97;102125.59;5036272;28;45389;-81
2022/05/09 05:15:33;;;;;;;;;11.25;11.00;;;;;16.15;84.72;102122.91;5035978;28;45356;-82
2022/05/09 05:17:59;;;;;;;;;16.00;11.00;;;;;16.12;84.67;102128.91;5031480;28;45391;-81
2022/05/09 05:20:25;;;;;;;;;16.75;13.00;;;;;16.13;84.48;102129.81;5008185;28;45467;-81
2022/05/09 05:22:51;;;;;;;;;12.50;10.75;;;;;16.12;84.27;102128.03;5031408;28;45497;-81
2022/05/09 05:25:26;;;;;;;;;14.75;13.50;;;;;16.13;84.75;102127.19;5031714;28;45467;-81
2022/05/09 05:27:52;;;;;;;;;12.75;12.75;;;;;16.11;85.37;102129.72;5030721;28;45360;-81
2022/05/09 05:30:19;;;;;;;;;15.75;14.00;;;;;16.15;85.14;102128.13;5020131;28;45339;-81
2022/05/09 05:32:46;;;;;;;;;13.00;12.75;;;;;16.13;84.86;102128.09;5038785;28;45238;-81
2022/05/09 05:35:20;;;;;;;;;13.50;12.75;;;;;16.12;84.83;102126.28;5045633;28;45610;-81
2022/05/09 05:37:46;;;;;;;;;15.25;12.25;;;;;16.12;85.28;102131.53;5027155;28;47869;-80
2022/05/09 05:40:13;;;;;;;;;15.25;12.50;;;;;16.14;85.32;102134.22;5026503;28;45918;-81
2022/05/09 05:42:40;;;;;;;;;16.25;14.50;;;;;16.17;85.22;102135.25;5039340;28;45376;-81
2022/05/09 05:45:08;;;;;;;;;17.25;14.50;;;;;16.18;84.81;102126.56;5038519;28;45655;-81
2022/05/09 05:47:33;;;;;;;;;13.75;12.25;;;;;16.17;85.68;102130.00;5038588;28;45913;-81
2022/05/09 05:49:59;;;;;;;;;14.00;13.50;;;;;16.16;85.99;102125.59;5020542;28;45526;-80
2022/05/09 05:52:25;;;;;;;;;17.00;14.25;;;;;16.15;85.96;102134.28;5038365;28;45222;-81
2022/05/09 05:54:51;;;;;;;;;14.50;13.25;;;;;16.14;86.52;102134.22;5020686;28;45225;-80
2022/05/09 05:57:19;;;;;;;;;16.50;12.25;;;;;16.19;86.81;102137.91;5033275;28;45790;-80
2022/05/09 05:59:56;;;;;;;;;14.00;13.75;;;;;16.23;86.35;102143.31;5034151;28;45466;-79
2022/05/09 06:02:23;;;;;;;;;19.00;14.50;;;;;16.27;86.02;102133.00;5038010;28;45445;-81
2022/05/09 06:04:49;;;;;;;;;14.75;12.50;;;;;16.31;85.29;102137.53;5024985;28;45557;-81
2022/05/09 06:07:15;;;;;;;;;15.00;14.50;;;;;16.35;85.09;102139.44;5000343;28;46324;-78
2022/05/09 06:09:44;;;;;;;;;16.00;14.75;;;;;16.39;84.84;102146.59;5030966;28;45796;-80
2022/05/09 06:12:10;;;;;;;;;13.75;13.75;;;;;16.42;84.61;102148.44;5038001;28;45512;-80
2022/05/09 06:14:37;;;;;;;;;18.50;15.50;;;;;16.44;84.73;102146.81;5037350;28;45606;-82
2022/05/09 06:17:03;;;;;;;;;15.75;14.75;;;;;16.47;84.74;102146.91;5033917;28;45502;-81
2022/05/09 06:19:29;;;;;;;;;18.50;15.25;;;;;16.50;85.47;102144.44;5038939;28;45251;-81
2022/05/09 06:21:56;;;;;;;;;19.25;16.25;;;;;16.53;84.96;102141.94;5039148;28;45454;-85
2022/05/09 06:24:21;;;;;;;;;19.50;16.50;;;;;16.58;84.64;102145.63;5042209;28;45710;-85
2022/05/09 06:26:48;;;;;;;;;20.25;16.25;;;;;16.58;84.35;102145.63;5020880;28;47725;-81
2022/05/09 06:29:14;;;;;;;;;20.00;16.25;;;;;16.64;84.16;102150.22;5042528;28;45391;-83
2022/05/09 06:31:40;;;;;;;;;17.75;16.25;;;;;16.67;84.15;102152.97;5030143;28;45512;-84
2022/05/09 06:34:11;;;;;;;;;21.25;16.50;;;;;16.70;83.50;102154.00;5026927;28;45364;-85
2022/05/09 06:36:41;;;;;;;;;16.75;16.25;;;;;16.71;83.44;102152.28;5038550;28;45681;-85
2022/05/09 06:39:09;;;;;;;;;16.50;14.75;;;;;16.75;83.20;102156.78;5033114;28;45339;-90
2022/05/09 06:41:38;;;;;;;;;20.00;16.00;;;;;16.77;82.92;102156.88;5028390;28;45259;-84
2022/05/09 06:44:04;;;;;;;;;21.50;19.00;;;;;16.78;82.83;102158.66;5020391;28;45505;-81
2022/05/09 06:46:30;;;;;;;;;21.00;18.00;;;;;16.83;82.53;102162.34;5036813;28;45478;-81
2022/05/09 06:48:55;;;;;;;;;20.75;17.75;;;;;16.86;82.28;102159.88;5037909;28;45313;-82
2022/05/09 06:51:22;;;;;;;;;21.50;19.50;;;;;16.84;82.33;102157.19;5037413;28;45420;-80
2022/05/09 06:53:50;;;;;;;;;20.50;17.75;;;;;16.84;81.79;102162.44;5040452;28;45233;-81
2022/05/09 06:56:16;;;;;;;;;20.00;16.25;;;;;16.90;81.47;102172.22;5045050;28;45386;-83
2022/05/09 06:58:41;;;;;;;;;26.25;17.00;;;;;16.88;81.10;102163.44;5036689;28;45879;-82
2022/05/09 07:01:19;;;;;;;;;17.75;15.75;;;;;16.86;81.06;102159.88;5038024;28;45393;-84
2022/05/09 07:03:45;;;;;;;;;23.75;21.50;;;;;16.91;81.07;102168.78;5037468;28;45277;-82
2022/05/09 07:06:12;;;;;;;;;25.25;21.00;;;;;16.92;80.80;102167.06;5037366;28;45514;-84
2022/05/09 07:08:38;;;;;;;;;24.00;20.50;;;;;16.94;80.07;102160.22;5018710;28;45480;-86
2022/05/09 07:11:05;;;;;;;;;17.25;13.50;;;;;16.92;79.89;102154.88;5034987;28;45315;-81
2022/05/09 07:13:33;;;;;;;;;21.25;21.25;;;;;16.97;80.08;102160.31;5030748;28;45568;-80
2022/05/09 07:16:04;;;;;;;;;21.00;16.75;;;;;17.04;80.36;102161.44;5030436;28;45542;-81
2022/05/09 07:18:30;;;;;;;;;16.50;15.00;;;;;17.10;79.99;102165.22;5034227;28;45781;-80
2022/05/09 07:20:57;;;;;;;;;21.25;17.75;;;;;17.17;80.32;102171.59;5038821;28;45604;-79
2022/05/09 07:23:23;;;;;;;;;18.25;15.50;;;;;17.23;79.28;102163.97;5040158;28;45304;-79
2022/05/09 07:25:50;;;;;;;;;20.50;15.25;;;;;17.25;79.48;102169.28;5036936;28;45600;-84
2022/05/09 07:28:21;;;;;;;;;22.50;16.75;;;;;17.26;79.04;102161.47;5035626;28;45920;-83
2022/05/09 07:30:48;;;;;;;;;22.75;18.00;;;;;17.25;78.88;102164.03;5035843;28;45901;-82
2022/05/09 07:33:18;;;;;;;;;16.00;14.75;;;;;17.29;78.59;102166.84;5039575;28;45475;-80
2022/05/09 07:35:44;;;;;;;;;18.50;18.25;;;;;17.33;78.40;102165.22;5033783;28;46109;-79
2022/05/09 07:38:11;;;;;;;;;15.50;14.00;;;;;17.40;77.80;102166.34;5018785;28;45440;-79
2022/05/09 07:40:40;;;;;;;;;24.25;16.50;;;;;17.45;77.79;102164.78;5036858;28;45380;-80
2022/05/09 07:43:26;;;;;;;;;16.50;13.75;;;;;17.48;77.10;102159.69;5036694;28;45559;-81
2022/05/09 07:45:54;;;;;;;;;20.75;14.50;;;;;17.54;76.83;102164.25;5037087;28;46133;-80
2022/05/09 07:48:21;;;;;;;;;12.50;11.00;;;;;17.57;76.60;102162.63;5038196;28;45292;-80
2022/05/09 07:50:48;;;;;;;;;16.25;13.50;;;;;17.60;76.48;102154.91;5042298;28;45237;-80
2022/05/09 07:53:18;;;;;;;;;20.75;15.75;;;;;17.66;76.66;102151.63;5040899;28;45482;-80
2022/05/09 07:55:44;;;;;;;;;22.25;18.00;;;;;17.72;76.72;102150.97;5020934;28;47946;-81
2022/05/09 07:58:11;;;;;;;;;18.00;15.50;;;;;17.74;76.40;102139.69;5035594;28;45392;-80
2022/05/09 08:00:39;;;;;;;;;15.75;13.50;;;;;17.84;76.21;102142.66;5035705;28;45601;-85
2022/05/09 08:03:06;;;;;;;;;15.50;13.50;;;;;17.87;76.21;102145.38;5039808;28;45341;-85
2022/05/09 08:05:33;;;;;;;;;21.25;13.50;;;;;17.95;76.18;102152.69;5040442;28;45502;-84
2022/05/09 08:07:58;;;;;;;;;16.25;14.00;;;;;17.99;75.78;102148.47;5039413;28;45261;-83
2022/05/09 08:10:25;;;;;;;;;19.75;16.25;;;;;18.01;75.31;102152.06;5037097;28;45344;-82
2022/05/09 08:12:52;;;;;;;;;17.50;13.00;;;;;18.02;75.10;102152.94;5037446;28;45369;-83
2022/05/09 08:15:19;;;;;;;;;19.25;15.75;;;;;18.03;74.80;102146.84;5042884;28;45659;-82
2022/05/09 08:17:47;;;;;;;;;15.00;12.75;;;;;18.08;74.94;102153.16;5041584;28;45376;-83
2022/05/09 08:20:14;;;;;;;;;18.50;14.50;;;;;18.13;74.83;102151.59;5038864;28;45288;-82
2022/05/09 08:22:41;;;;;;;;;15.75;13.75;;;;;18.14;74.86;102140.28;5037626;28;45527;-83
2022/05/09 08:25:07;;;;;;;;;14.75;14.50;;;;;18.18;74.80;102150.03;5037153;28;45465;-83
2022/05/09 08:27:33;;;;;;;;;14.75;11.50;;;;;18.23;75.03;102145.81;5038644;28;46106;-83
2022/05/09 08:30:00;;;;;;;;;19.75;14.50;;;;;18.28;75.01;102147.72;5035929;28;45532;-83
2022/05/09 08:32:31;;;;;;;;;13.25;11.75;;;;;18.30;75.00;102149.56;5036605;28;45486;-80
2022/05/09 08:34:58;;;;;;;;;15.00;14.50;;;;;18.34;75.22;102145.31;5035054;28;46061;-82
2022/05/09 08:37:24;;;;;;;;;17.50;15.00;;;;;18.37;74.70;102138.44;5017101;28;45761;-82
2022/05/09 08:39:50;;;;;;;;;15.50;12.25;;;;;18.46;74.62;102139.59;5035577;28;45411;-81
2022/05/09 08:42:23;;;;;;;;;17.50;13.00;;;;;18.53;75.38;102146.81;5037851;28;45618;-82
2022/05/09 08:45:24;;;;;;;;;19.25;15.00;;;;;18.59;74.64;102144.38;5042831;28;45443;-82
2022/05/09 08:47:58;;;;;;;;;20.75;16.00;;;;;18.64;74.26;102147.16;4975216;28;45377;-82
2022/05/09 08:50:29;;;;;;;;;22.00;17.00;;;;;18.68;74.05;102146.44;5012099;28;45488;-82
2022/05/09 08:52:59;;;;;;;;;19.50;17.00;;;;;18.70;73.55;102148.25;5035619;28;45555;-82
2022/05/09 08:55:32;;;;;;;;;17.00;15.25;;;;;18.74;73.72;102145.75;5035685;28;46170;-81
2022/05/09 08:58:19;;;;;;;;;18.25;17.50;;;;;18.79;73.10;102133.69;5035316;28;45429;-82
2022/05/09 09:00:47;;;;;;;;;19.50;16.75;;;;;18.84;73.14;102143.44;5034461;28;45431;-81
2022/05/09 09:03:24;;;;;;;;;17.25;17.25;;;;;18.90;73.17;102136.63;5023724;28;45638;-80
2022/05/09 09:05:53;;;;;;;;;21.25;16.25;;;;;18.93;73.34;102131.50;5035783;28;45538;-80
2022/05/09 09:08:42;;;;;;;;;10.25;10.00;;;;;18.97;72.87;102130.75;5016475;28;45788;-82
2022/05/09 09:11:22;;;;;;;;;15.75;15.25;;;;;19.02;72.63;102126.56;5033717;28;45425;-80
2022/05/09 09:14:26;;;;;;;;;14.25;14.25;;;;;19.04;72.64;102127.50;5034538;28;45431;-82
2022/05/09 09:17:42;;;;;;;;;18.75;15.25;;;;;19.10;72.28;102121.56;4996588;28;45495;-83
2022/05/09 09:20:27;;;;;;;;;17.50;15.75;;;;;19.16;72.65;102121.72;5017060;28;46046;-83
2022/05/09 09:23:18;;;;;;;;;20.50;17.00;;;;;19.15;72.89;102112.97;5034379;28;47071;-84
2022/05/09 09:26:10;;;;;;;;;15.00;14.25;;;;;19.16;72.45;102098.09;5041091;28;45580;-81
2022/05/09 09:28:51;;;;;;;;;16.75;15.00;;;;;19.30;72.06;102128.28;5037362;28;45521;-80
2022/05/09 09:31:41;;;;;;;;;19.50;15.25;;;;;19.35;72.33;102125.81;5035361;28;45530;-83
2022/05/09 09:34:27;;;;;;;;;18.00;15.00;;;;;19.37;72.24;102126.75;5028968;28;45314;-82
2022/05/09 09:37:01;;;;;;;;;15.00;11.75;;;;;19.38;72.44;102115.41;5018224;28;45705;-82
2022/05/09 09:39:27;;;;;;;;;14.25;12.75;;;;;19.46;72.15;102127.00;5035963;28;46341;-82
2022/05/09 09:41:55;;;;;;;;;16.50;13.00;;;;;19.48;71.93;102119.16;5034911;28;45425;-82
2022/05/09 09:44:25;;;;;;;;;18.00;16.50;;;;;19.53;71.20;102116.66;5034105;28;45364;-83
2022/05/09 09:47:24;;;;;;;;;15.75;13.00;;;;;19.64;70.75;102125.75;5040371;28;45563;-81
2022/05/09 09:50:21;;;;;;;;;16.00;13.25;;;;;19.66;70.11;102118.81;5017016;28;46948;-84
2022/05/09 09:52:56;;;;;;;;;19.50;15.00;;;;;19.65;69.95;102117.03;5042311;28;45824;-82
2022/05/09 09:55:28;;;;;;;;;16.25;14.50;;;;;19.67;70.10;102111.78;5036811;28;45364;-83
2022/05/09 09:57:56;;;;;;;;;18.00;14.75;;;;;19.72;69.69;102107.56;5035231;28;45391;-84
2022/05/09 10:00:30;;;;;;;;;15.00;12.00;;;;;19.75;70.16;102105.91;5035428;28;45590;-84
2022/05/09 10:03:17;;;;;;;;;22.00;15.75;;;;;19.78;69.54;102095.50;5036445;28;45950;-83
2022/05/09 10:05:46;;;;;;;;;17.00;13.25;;;;;19.83;69.59;102094.72;5035213;28;45408;-84
2022/05/09 10:08:33;;;;;;;;;14.75;14.00;;;;;19.92;70.64;102089.75;5037587;28;45426;-84
2022/05/09 10:11:12;;;;;;;;;16.75;13.25;;;;;19.94;69.80;102088.94;5038432;28;45469;-85
2022/05/09 10:13:48;;;;;;;;;13.50;13.25;;;;;19.95;70.42;102088.09;5042331;28;45449;-84
2022/05/09 10:16:30;;;;;;;;;15.25;13.50;;;;;19.95;69.72;102081.94;5049503;28;45286;-85
2022/05/09 10:18:58;;;;;;;;;17.00;16.75;;;;;20.02;69.49;102083.00;5038281;28;45483;-85
2022/05/09 10:24:50;;;;;;;;;17.75;15.00;;;;;20.14;68.37;102083.31;5038637;28;45454;-84
2022/05/09 10:27:22;;;;;;;;;19.50;17.25;;;;;20.20;67.11;102075.56;5038768;28;45813;-84
2022/05/09 10:29:56;;;;;;;;;19.00;15.25;;;;;20.23;67.03;102082.66;5042427;28;45463;-86
2022/05/09 10:32:29;;;;;;;;;15.25;14.00;;;;;20.28;66.47;102081.03;5046710;28;45285;-85
2022/05/09 10:35:02;;;;;;;;;21.00;18.50;;;;;20.30;67.22;102081.09;5042295;28;45866;-84
2022/05/09 10:37:38;;;;;;;;;20.00;16.00;;;;;20.29;67.48;102074.91;5038739;28;45253;-85
2022/05/09 10:40:07;;;;;;;;;19.75;15.00;;;;;20.36;66.21;102076.84;5020243;28;45638;-84
2022/05/09 10:42:41;;;;;;;;;12.75;11.00;;;;;20.44;66.20;102070.91;5031945;28;45398;-83
2022/05/09 10:45:21;;;;;;;;;12.50;12.50;;;;;20.49;65.38;102074.50;5037528;28;46032;-84
2022/05/09 10:48:02;;;;;;;;;14.25;12.75;;;;;20.52;65.34;102064.94;5018266;28;45194;-83
2022/05/09 10:50:34;;;;;;;;;21.25;19.25;;;;;20.56;66.04;102066.81;5027336;28;45335;-82
2022/05/09 10:53:33;;;;;;;;;17.50;16.00;;;;;20.63;66.46;102067.84;5039936;28;46238;-84
2022/05/09 10:56:08;;;;;;;;;13.00;12.00;;;;;20.70;64.60;102061.84;5045642;28;45241;-82
2022/05/09 10:58:47;;;;;;;;;13.50;11.50;;;;;20.79;62.38;102071.75;5026796;28;45273;-83
2022/05/09 11:01:20;;;;;;;;;13.75;13.25;;;;;20.86;61.12;102059.63;5048973;28;45348;-82
2022/05/09 11:03:46;;;;;;;;;16.50;12.25;;;;;20.91;60.04;102063.22;5041522;28;46385;-83
2022/05/09 11:06:16;;;;;;;;;12.25;11.75;;;;;20.93;60.47;102055.38;5037477;28;45862;-82
2022/05/09 11:08:55;;;;;;;;;13.25;10.50;;;;;20.96;60.06;102064.22;5038018;28;45460;-82
2022/05/09 11:11:48;;;;;;;;;14.50;13.25;;;;;20.97;58.06;102047.56;5038301;28;45325;-83
2022/05/09 11:14:14;;;;;;;;;18.00;14.00;;;;;;;;5037695;28;45582;-83
2022/05/09 11:16:55;;;;;;;;;16.00;13.25;;;;;21.13;58.16;102053.16;5038210;28;45292;-82
2022/05/09 11:19:33;;;;;;;;;15.50;14.50;;;;;21.18;57.58;102055.03;5037397;28;45344;-81
2022/05/09 11:22:06;;;;;;;;;17.25;14.75;;;;;21.28;56.74;102057.84;5044789;28;45221;-83
2022/05/09 11:25:16;;;;;;;;;17.00;13.25;;;;;21.33;57.36;102051.81;5044437;28;46461;-83
2022/05/09 11:28:07;;;;;;;;;13.00;12.00;;;;;21.43;57.50;102046.75;4976315;28;45477;-83
2022/05/09 11:30:41;;;;;;;;;16.75;13.75;;;;;21.46;57.33;102037.16;4989306;28;45393;-82
2022/05/09 11:33:33;;;;;;;;;12.25;11.00;;;;;21.52;57.58;102040.75;5037880;28;45376;-83
2022/05/09 11:36:36;;;;;;;;;11.25;11.25;;;;;21.59;57.04;102043.56;5042313;28;45461;-83